sensor_id;sensor_type;location;lat;lon;timestamp;P1;durP1;ratioP1;P2;durP2;ratioP2
26965;SDS011;14522;52.068;4.414;2023-02-28T00:00:07;3.33;;;1.33;;
26965;SDS011;14522;52.068;4.414;2023-02-28T00:02:37;3.17;;;1.55;;
26965;SDS011;14522;52.068;4.414;2023-02-28T00:05:04;3.95;;;1.40;;
26965;SDS011;14522;52.068;4.414;2023-02-28T00:07:31;5.10;;;1.63;;
26965;SDS011;14522;52.068;4.414;2023-02-28T00:09:58;3.55;;;1.35;;
26965;SDS011;14522;52.068;4.414;2023-02-28T00:12:24;3.13;;;1.35;;
26965;SDS011;14522;52.068;4.414;2023-02-28T00:14:51;5.78;;;1.70;;
26965;SDS011;14522;52.068;4.414;2023-02-28T00:17:17;3.60;;;1.85;;
26965;SDS011;14522;52.068;4.414;2023-02-28T00:19:43;5.72;;;1.23;;
26965;SDS011;14522;52.068;4.414;2023-02-28T00:22:10;9.75;;;1.83;;
26965;SDS011;14522;52.068;4.414;2023-02-28T00:24:36;7.00;;;1.80;;
26965;SDS011;14522;52.068;4.414;2023-02-28T00:27:03;4.40;;;1.45;;
26965;SDS011;14522;52.068;4.414;2023-02-28T00:29:29;4.80;;;1.60;;
26965;SDS011;14522;52.068;4.414;2023-02-28T00:31:55;2.72;;;1.27;;
26965;SDS011;14522;52.068;4.414;2023-02-28T00:34:22;3.53;;;1.40;;
26965;SDS011;14522;52.068;4.414;2023-02-28T00:36:48;5.80;;;1.55;;
26965;SDS011;14522;52.068;4.414;2023-02-28T00:39:15;5.85;;;1.70;;
26965;SDS011;14522;52.068;4.414;2023-02-28T00:41:41;2.83;;;1.40;;
26965;SDS011;14522;52.068;4.414;2023-02-28T00:44:08;3.90;;;1.63;;
26965;SDS011;14522;52.068;4.414;2023-02-28T00:46:34;5.40;;;1.90;;
26965;SDS011;14522;52.068;4.414;2023-02-28T00:49:01;5.57;;;1.33;;
26965;SDS011;14522;52.068;4.414;2023-02-28T00:51:27;4.85;;;1.55;;
26965;SDS011;14522;52.068;4.414;2023-02-28T00:53:54;4.15;;;1.50;;
26965;SDS011;14522;52.068;4.414;2023-02-28T00:56:21;4.50;;;1.80;;
26965;SDS011;14522;52.068;4.414;2023-02-28T00:58:47;1.85;;;0.85;;
26965;SDS011;14522;52.068;4.414;2023-02-28T01:01:13;4.60;;;1.70;;
26965;SDS011;14522;52.068;4.414;2023-02-28T01:03:40;1.98;;;1.17;;
26965;SDS011;14522;52.068;4.414;2023-02-28T01:06:06;3.35;;;1.17;;
26965;SDS011;14522;52.068;4.414;2023-02-28T01:08:33;5.20;;;1.38;;
26965;SDS011;14522;52.068;4.414;2023-02-28T01:11:06;3.80;;;1.10;;
26965;SDS011;14522;52.068;4.414;2023-02-28T01:13:33;4.97;;;1.33;;
26965;SDS011;14522;52.068;4.414;2023-02-28T01:15:59;4.50;;;1.50;;
26965;SDS011;14522;52.068;4.414;2023-02-28T01:18:26;3.42;;;1.50;;
26965;SDS011;14522;52.068;4.414;2023-02-28T01:20:53;7.15;;;1.40;;
26965;SDS011;14522;52.068;4.414;2023-02-28T01:23:19;2.65;;;1.33;;
26965;SDS011;14522;52.068;4.414;2023-02-28T01:25:47;4.70;;;1.30;;
26965;SDS011;14522;52.068;4.414;2023-02-28T01:28:14;4.65;;;1.45;;
26965;SDS011;14522;52.068;4.414;2023-02-28T01:30:40;3.15;;;1.10;;
26965;SDS011;14522;52.068;4.414;2023-02-28T01:33:06;4.72;;;1.13;;
26965;SDS011;14522;52.068;4.414;2023-02-28T01:35:33;4.65;;;1.35;;
26965;SDS011;14522;52.068;4.414;2023-02-28T01:38:00;4.47;;;1.40;;
26965;SDS011;14522;52.068;4.414;2023-02-28T01:40:46;3.55;;;1.38;;
26965;SDS011;14522;52.068;4.414;2023-02-28T01:43:17;3.90;;;1.33;;
26965;SDS011;14522;52.068;4.414;2023-02-28T01:45:45;5.70;;;1.65;;
26965;SDS011;14522;52.068;4.414;2023-02-28T01:48:11;4.45;;;1.23;;
26965;SDS011;14522;52.068;4.414;2023-02-28T01:50:41;5.28;;;1.60;;
26965;SDS011;14522;52.068;4.414;2023-02-28T01:53:08;4.55;;;1.42;;
26965;SDS011;14522;52.068;4.414;2023-02-28T01:55:36;4.20;;;1.40;;
26965;SDS011;14522;52.068;4.414;2023-02-28T01:58:04;3.20;;;1.20;;
26965;SDS011;14522;52.068;4.414;2023-02-28T02:00:32;5.32;;;1.25;;
26965;SDS011;14522;52.068;4.414;2023-02-28T02:02:59;3.10;;;1.30;;
26965;SDS011;14522;52.068;4.414;2023-02-28T02:05:28;5.32;;;1.50;;
26965;SDS011;14522;52.068;4.414;2023-02-28T02:08:00;5.43;;;1.55;;
26965;SDS011;14522;52.068;4.414;2023-02-28T02:10:41;5.70;;;1.75;;
26965;SDS011;14522;52.068;4.414;2023-02-28T02:16:04;4.40;;;1.50;;
26965;SDS011;14522;52.068;4.414;2023-02-28T02:23:33;3.00;;;1.50;;
26965;SDS011;14522;52.068;4.414;2023-02-28T02:28:56;4.25;;;1.42;;
26965;SDS011;14522;52.068;4.414;2023-02-28T02:31:41;3.30;;;1.38;;
26965;SDS011;14522;52.068;4.414;2023-02-28T02:39:50;5.85;;;1.98;;
26965;SDS011;14522;52.068;4.414;2023-02-28T02:42:24;6.28;;;1.70;;
26965;SDS011;14522;52.068;4.414;2023-02-28T02:45:00;6.43;;;1.83;;
26965;SDS011;14522;52.068;4.414;2023-02-28T02:47:29;3.80;;;1.65;;
26965;SDS011;14522;52.068;4.414;2023-02-28T02:49:57;4.13;;;1.60;;
26965;SDS011;14522;52.068;4.414;2023-02-28T02:52:29;5.40;;;1.73;;
26965;SDS011;14522;52.068;4.414;2023-02-28T02:54:56;3.13;;;1.80;;
26965;SDS011;14522;52.068;4.414;2023-02-28T02:57:32;5.72;;;1.80;;
26965;SDS011;14522;52.068;4.414;2023-02-28T02:59:59;4.30;;;1.70;;
26965;SDS011;14522;52.068;4.414;2023-02-28T03:02:27;6.75;;;1.52;;
26965;SDS011;14522;52.068;4.414;2023-02-28T03:04:56;5.30;;;1.83;;
26965;SDS011;14522;52.068;4.414;2023-02-28T03:07:27;4.88;;;1.83;;
26965;SDS011;14522;52.068;4.414;2023-02-28T03:09:54;6.00;;;1.92;;
26965;SDS011;14522;52.068;4.414;2023-02-28T03:12:21;6.28;;;1.95;;
26965;SDS011;14522;52.068;4.414;2023-02-28T03:14:56;4.78;;;1.65;;
26965;SDS011;14522;52.068;4.414;2023-02-28T03:25:54;3.22;;;1.58;;
26965;SDS011;14522;52.068;4.414;2023-02-28T03:28:16;3.92;;;1.92;;
26965;SDS011;14522;52.068;4.414;2023-02-28T03:30:54;4.00;;;1.52;;
26965;SDS011;14522;52.068;4.414;2023-02-28T03:33:31;6.88;;;2.00;;
26965;SDS011;14522;52.068;4.414;2023-02-28T03:38:33;6.65;;;1.85;;
26965;SDS011;14522;52.068;4.414;2023-02-28T03:41:06;4.55;;;2.25;;
26965;SDS011;14522;52.068;4.414;2023-02-28T03:43:36;10.38;;;2.20;;
26965;SDS011;14522;52.068;4.414;2023-02-28T03:46:05;6.20;;;2.03;;
26965;SDS011;14522;52.068;4.414;2023-02-28T03:48:36;7.35;;;1.92;;
26965;SDS011;14522;52.068;4.414;2023-02-28T03:51:04;5.57;;;1.77;;
26965;SDS011;14522;52.068;4.414;2023-02-28T03:53:35;7.03;;;2.10;;
26965;SDS011;14522;52.068;4.414;2023-02-28T03:58:38;10.23;;;2.35;;
26965;SDS011;14522;52.068;4.414;2023-02-28T04:01:15;5.75;;;1.73;;
26965;SDS011;14522;52.068;4.414;2023-02-28T04:03:44;6.63;;;1.80;;
26965;SDS011;14522;52.068;4.414;2023-02-28T04:06:15;7.05;;;2.00;;
26965;SDS011;14522;52.068;4.414;2023-02-28T04:08:41;4.55;;;2.28;;
26965;SDS011;14522;52.068;4.414;2023-02-28T04:11:15;5.25;;;2.08;;
26965;SDS011;14522;52.068;4.414;2023-02-28T04:13:42;6.57;;;2.20;;
26965;SDS011;14522;52.068;4.414;2023-02-28T04:16:11;4.72;;;1.95;;
26965;SDS011;14522;52.068;4.414;2023-02-28T04:18:49;6.53;;;2.47;;
26965;SDS011;14522;52.068;4.414;2023-02-28T04:21:16;6.28;;;2.10;;
26965;SDS011;14522;52.068;4.414;2023-02-28T04:23:46;5.30;;;1.90;;
26965;SDS011;14522;52.068;4.414;2023-02-28T04:26:13;7.72;;;2.83;;
26965;SDS011;14522;52.068;4.414;2023-02-28T04:28:39;11.32;;;2.65;;
26965;SDS011;14522;52.068;4.414;2023-02-28T04:31:05;5.18;;;2.17;;
26965;SDS011;14522;52.068;4.414;2023-02-28T04:33:32;5.75;;;2.20;;
26965;SDS011;14522;52.068;4.414;2023-02-28T04:36:02;4.57;;;2.38;;
26965;SDS011;14522;52.068;4.414;2023-02-28T04:38:32;5.60;;;2.20;;
26965;SDS011;14522;52.068;4.414;2023-02-28T04:40:59;7.22;;;2.53;;
26965;SDS011;14522;52.068;4.414;2023-02-28T04:43:26;5.53;;;2.90;;
26965;SDS011;14522;52.068;4.414;2023-02-28T04:45:53;5.05;;;2.30;;
26965;SDS011;14522;52.068;4.414;2023-02-28T04:48:23;3.58;;;1.83;;
26965;SDS011;14522;52.068;4.414;2023-02-28T04:50:50;4.22;;;2.00;;
26965;SDS011;14522;52.068;4.414;2023-02-28T04:53:16;7.03;;;2.30;;
26965;SDS011;14522;52.068;4.414;2023-02-28T04:55:43;3.90;;;2.25;;
26965;SDS011;14522;52.068;4.414;2023-02-28T04:58:10;11.05;;;2.60;;
26965;SDS011;14522;52.068;4.414;2023-02-28T05:00:36;6.18;;;2.53;;
26965;SDS011;14522;52.068;4.414;2023-02-28T05:03:03;8.02;;;2.38;;
26965;SDS011;14522;52.068;4.414;2023-02-28T05:05:29;5.53;;;2.40;;
26965;SDS011;14522;52.068;4.414;2023-02-28T05:07:55;6.97;;;2.50;;
26965;SDS011;14522;52.068;4.414;2023-02-28T05:10:22;5.30;;;2.63;;
26965;SDS011;14522;52.068;4.414;2023-02-28T05:12:49;6.10;;;2.20;;
26965;SDS011;14522;52.068;4.414;2023-02-28T05:15:16;8.57;;;3.35;;
26965;SDS011;14522;52.068;4.414;2023-02-28T05:17:42;7.45;;;3.05;;
26965;SDS011;14522;52.068;4.414;2023-02-28T05:20:09;5.72;;;2.72;;
26965;SDS011;14522;52.068;4.414;2023-02-28T05:22:41;7.80;;;2.75;;
26965;SDS011;14522;52.068;4.414;2023-02-28T05:25:08;7.47;;;2.83;;
26965;SDS011;14522;52.068;4.414;2023-02-28T05:27:37;6.85;;;2.67;;
26965;SDS011;14522;52.068;4.414;2023-02-28T05:30:05;6.22;;;2.75;;
26965;SDS011;14522;52.068;4.414;2023-02-28T05:32:32;5.15;;;2.83;;
26965;SDS011;14522;52.068;4.414;2023-02-28T05:34:58;6.57;;;2.83;;
26965;SDS011;14522;52.068;4.414;2023-02-28T05:37:24;3.90;;;2.42;;
26965;SDS011;14522;52.068;4.414;2023-02-28T05:39:51;7.38;;;3.17;;
26965;SDS011;14522;52.068;4.414;2023-02-28T05:42:17;7.32;;;2.58;;
26965;SDS011;14522;52.068;4.414;2023-02-28T05:44:44;5.75;;;2.60;;
26965;SDS011;14522;52.068;4.414;2023-02-28T05:47:10;7.63;;;2.45;;
26965;SDS011;14522;52.068;4.414;2023-02-28T05:49:38;4.95;;;2.97;;
26965;SDS011;14522;52.068;4.414;2023-02-28T05:52:05;6.80;;;2.92;;
26965;SDS011;14522;52.068;4.414;2023-02-28T05:54:31;6.45;;;3.10;;
26965;SDS011;14522;52.068;4.414;2023-02-28T05:56:58;7.25;;;2.75;;
26965;SDS011;14522;52.068;4.414;2023-02-28T05:59:24;4.38;;;2.70;;
26965;SDS011;14522;52.068;4.414;2023-02-28T06:01:50;10.60;;;3.53;;
26965;SDS011;14522;52.068;4.414;2023-02-28T06:04:19;9.35;;;3.40;;
26965;SDS011;14522;52.068;4.414;2023-02-28T06:06:57;7.28;;;3.35;;
26965;SDS011;14522;52.068;4.414;2023-02-28T06:09:24;8.23;;;3.33;;
26965;SDS011;14522;52.068;4.414;2023-02-28T06:11:51;5.43;;;3.08;;
26965;SDS011;14522;52.068;4.414;2023-02-28T06:14:18;4.20;;;3.20;;
26965;SDS011;14522;52.068;4.414;2023-02-28T06:16:44;7.55;;;3.28;;
26965;SDS011;14522;52.068;4.414;2023-02-28T06:19:11;5.40;;;3.40;;
26965;SDS011;14522;52.068;4.414;2023-02-28T06:21:38;6.95;;;3.50;;
26965;SDS011;14522;52.068;4.414;2023-02-28T06:24:04;7.90;;;3.70;;
26965;SDS011;14522;52.068;4.414;2023-02-28T06:26:31;7.65;;;3.88;;
26965;SDS011;14522;52.068;4.414;2023-02-28T06:28:57;5.40;;;3.33;;
26965;SDS011;14522;52.068;4.414;2023-02-28T06:31:24;6.72;;;3.38;;
26965;SDS011;14522;52.068;4.414;2023-02-28T06:33:52;10.18;;;3.60;;
26965;SDS011;14522;52.068;4.414;2023-02-28T06:36:18;8.23;;;2.90;;
26965;SDS011;14522;52.068;4.414;2023-02-28T06:38:45;5.15;;;3.65;;
26965;SDS011;14522;52.068;4.414;2023-02-28T06:41:11;4.78;;;3.35;;
26965;SDS011;14522;52.068;4.414;2023-02-28T06:43:40;6.50;;;3.55;;
26965;SDS011;14522;52.068;4.414;2023-02-28T06:46:07;7.75;;;3.85;;
26965;SDS011;14522;52.068;4.414;2023-02-28T06:48:34;8.20;;;4.47;;
26965;SDS011;14522;52.068;4.414;2023-02-28T06:51:09;5.60;;;4.00;;
26965;SDS011;14522;52.068;4.414;2023-02-28T06:53:36;6.80;;;3.88;;
26965;SDS011;14522;52.068;4.414;2023-02-28T06:56:06;5.72;;;3.50;;
26965;SDS011;14522;52.068;4.414;2023-02-28T06:58:33;6.18;;;3.20;;
26965;SDS011;14522;52.068;4.414;2023-02-28T07:01:00;5.20;;;3.08;;
26965;SDS011;14522;52.068;4.414;2023-02-28T07:03:26;5.85;;;2.85;;
26965;SDS011;14522;52.068;4.414;2023-02-28T07:05:52;9.30;;;2.83;;
26965;SDS011;14522;52.068;4.414;2023-02-28T07:08:19;5.78;;;2.90;;
26965;SDS011;14522;52.068;4.414;2023-02-28T07:10:45;4.97;;;2.47;;
26965;SDS011;14522;52.068;4.414;2023-02-28T07:13:12;7.05;;;2.50;;
26965;SDS011;14522;52.068;4.414;2023-02-28T07:15:38;6.28;;;2.28;;
26965;SDS011;14522;52.068;4.414;2023-02-28T07:18:09;3.97;;;1.60;;
26965;SDS011;14522;52.068;4.414;2023-02-28T07:20:35;3.65;;;1.70;;
26965;SDS011;14522;52.068;4.414;2023-02-28T07:23:01;3.38;;;1.67;;
26965;SDS011;14522;52.068;4.414;2023-02-28T07:25:28;3.60;;;1.88;;
26965;SDS011;14522;52.068;4.414;2023-02-28T07:27:55;7.45;;;1.75;;
26965;SDS011;14522;52.068;4.414;2023-02-28T07:30:22;5.55;;;1.70;;
26965;SDS011;14522;52.068;4.414;2023-02-28T07:32:48;4.72;;;1.75;;
26965;SDS011;14522;52.068;4.414;2023-02-28T07:35:15;4.75;;;1.60;;
26965;SDS011;14522;52.068;4.414;2023-02-28T07:37:41;5.93;;;1.60;;
26965;SDS011;14522;52.068;4.414;2023-02-28T07:40:09;5.28;;;1.88;;
26965;SDS011;14522;52.068;4.414;2023-02-28T07:42:37;7.75;;;1.90;;
26965;SDS011;14522;52.068;4.414;2023-02-28T07:45:05;4.82;;;1.90;;
26965;SDS011;14522;52.068;4.414;2023-02-28T07:47:32;2.67;;;1.70;;
26965;SDS011;14522;52.068;4.414;2023-02-28T07:49:58;6.18;;;2.00;;
26965;SDS011;14522;52.068;4.414;2023-02-28T07:52:25;3.70;;;1.80;;
26965;SDS011;14522;52.068;4.414;2023-02-28T07:54:51;2.50;;;1.70;;
26965;SDS011;14522;52.068;4.414;2023-02-28T07:57:18;3.72;;;1.50;;
26965;SDS011;14522;52.068;4.414;2023-02-28T07:59:44;4.97;;;1.58;;
26965;SDS011;14522;52.068;4.414;2023-02-28T08:02:15;3.72;;;1.60;;
26965;SDS011;14522;52.068;4.414;2023-02-28T08:04:41;3.03;;;1.65;;
26965;SDS011;14522;52.068;4.414;2023-02-28T08:07:08;4.78;;;1.77;;
26965;SDS011;14522;52.068;4.414;2023-02-28T08:09:39;3.25;;;1.80;;
26965;SDS011;14522;52.068;4.414;2023-02-28T08:12:06;3.20;;;1.60;;
26965;SDS011;14522;52.068;4.414;2023-02-28T08:14:33;4.45;;;1.83;;
26965;SDS011;14522;52.068;4.414;2023-02-28T08:17:00;3.95;;;1.80;;
26965;SDS011;14522;52.068;4.414;2023-02-28T08:19:26;3.10;;;1.85;;
26965;SDS011;14522;52.068;4.414;2023-02-28T08:21:53;3.50;;;1.85;;
26965;SDS011;14522;52.068;4.414;2023-02-28T08:24:20;3.30;;;1.88;;
26965;SDS011;14522;52.068;4.414;2023-02-28T08:26:46;5.30;;;2.22;;
26965;SDS011;14522;52.068;4.414;2023-02-28T08:29:13;5.00;;;2.00;;
26965;SDS011;14522;52.068;4.414;2023-02-28T08:31:39;1.50;;;0.85;;
26965;SDS011;14522;52.068;4.414;2023-02-28T08:34:06;3.15;;;1.60;;
26965;SDS011;14522;52.068;4.414;2023-02-28T08:36:32;3.17;;;1.70;;
26965;SDS011;14522;52.068;4.414;2023-02-28T08:38:59;3.45;;;1.70;;
26965;SDS011;14522;52.068;4.414;2023-02-28T08:41:25;1.88;;;1.63;;
26965;SDS011;14522;52.068;4.414;2023-02-28T08:43:52;2.33;;;1.58;;
26965;SDS011;14522;52.068;4.414;2023-02-28T08:46:19;2.92;;;1.70;;
26965;SDS011;14522;52.068;4.414;2023-02-28T08:48:46;3.65;;;1.90;;
26965;SDS011;14522;52.068;4.414;2023-02-28T08:51:14;3.17;;;1.90;;
26965;SDS011;14522;52.068;4.414;2023-02-28T08:53:42;2.45;;;1.48;;
26965;SDS011;14522;52.068;4.414;2023-02-28T08:56:10;2.22;;;1.73;;
26965;SDS011;14522;52.068;4.414;2023-02-28T08:58:37;1.95;;;1.70;;
26965;SDS011;14522;52.068;4.414;2023-02-28T09:01:07;2.65;;;1.60;;
26965;SDS011;14522;52.068;4.414;2023-02-28T09:03:34;2.50;;;1.90;;
26965;SDS011;14522;52.068;4.414;2023-02-28T09:06:00;4.13;;;1.73;;
26965;SDS011;14522;52.068;4.414;2023-02-28T09:08:28;2.25;;;1.58;;
26965;SDS011;14522;52.068;4.414;2023-02-28T09:10:56;2.40;;;1.58;;
26965;SDS011;14522;52.068;4.414;2023-02-28T09:13:26;2.95;;;1.88;;
26965;SDS011;14522;52.068;4.414;2023-02-28T09:15:53;2.28;;;1.75;;
26965;SDS011;14522;52.068;4.414;2023-02-28T09:18:20;3.20;;;2.00;;
26965;SDS011;14522;52.068;4.414;2023-02-28T09:20:46;3.17;;;1.65;;
26965;SDS011;14522;52.068;4.414;2023-02-28T09:23:13;2.70;;;1.90;;
26965;SDS011;14522;52.068;4.414;2023-02-28T09:25:49;2.70;;;1.35;;
26965;SDS011;14522;52.068;4.414;2023-02-28T09:28:16;2.45;;;1.40;;
26965;SDS011;14522;52.068;4.414;2023-02-28T09:30:47;2.47;;;1.60;;
26965;SDS011;14522;52.068;4.414;2023-02-28T09:33:14;3.80;;;1.60;;
26965;SDS011;14522;52.068;4.414;2023-02-28T09:35:41;2.72;;;1.55;;
26965;SDS011;14522;52.068;4.414;2023-02-28T09:38:09;2.10;;;1.50;;
26965;SDS011;14522;52.068;4.414;2023-02-28T09:40:55;4.80;;;1.60;;
26965;SDS011;14522;52.068;4.414;2023-02-28T09:43:23;5.30;;;1.67;;
26965;SDS011;14522;52.068;4.414;2023-02-28T09:45:52;4.05;;;1.42;;
26965;SDS011;14522;52.068;4.414;2023-02-28T09:48:26;2.50;;;1.58;;
26965;SDS011;14522;52.068;4.414;2023-02-28T09:51:04;3.13;;;1.67;;
26965;SDS011;14522;52.068;4.414;2023-02-28T09:53:32;3.58;;;1.67;;
26965;SDS011;14522;52.068;4.414;2023-02-28T09:58:30;2.90;;;1.70;;
26965;SDS011;14522;52.068;4.414;2023-02-28T10:00:59;3.70;;;2.20;;
26965;SDS011;14522;52.068;4.414;2023-02-28T10:08:25;3.10;;;2.30;;
26965;SDS011;14522;52.068;4.414;2023-02-28T10:10:57;6.13;;;2.10;;
26965;SDS011;14522;52.068;4.414;2023-02-28T10:15:55;4.45;;;2.08;;
26965;SDS011;14522;52.068;4.414;2023-02-28T10:18:24;2.40;;;1.50;;
26965;SDS011;14522;52.068;4.414;2023-02-28T10:20:52;2.95;;;1.65;;
26965;SDS011;14522;52.068;4.414;2023-02-28T10:23:26;4.32;;;1.90;;
26965;SDS011;14522;52.068;4.414;2023-02-28T10:25:58;4.70;;;1.88;;
26965;SDS011;14522;52.068;4.414;2023-02-28T10:28:25;3.58;;;1.48;;
26965;SDS011;14522;52.068;4.414;2023-02-28T10:30:52;2.15;;;1.52;;
26965;SDS011;14522;52.068;4.414;2023-02-28T10:33:33;5.03;;;1.20;;
26965;SDS011;14522;52.068;4.414;2023-02-28T10:36:02;2.65;;;1.23;;
26965;SDS011;14522;52.068;4.414;2023-02-28T10:38:36;2.63;;;1.30;;
26965;SDS011;14522;52.068;4.414;2023-02-28T10:43:33;3.35;;;1.30;;
26965;SDS011;14522;52.068;4.414;2023-02-28T10:48:57;2.22;;;1.30;;
26965;SDS011;14522;52.068;4.414;2023-02-28T10:51:26;2.38;;;1.40;;
26965;SDS011;14522;52.068;4.414;2023-02-28T10:54:00;2.47;;;1.45;;
26965;SDS011;14522;52.068;4.414;2023-02-28T10:56:28;3.15;;;1.45;;
26965;SDS011;14522;52.068;4.414;2023-02-28T11:01:27;2.47;;;1.25;;
26965;SDS011;14522;52.068;4.414;2023-02-28T11:04:00;2.88;;;1.15;;
26965;SDS011;14522;52.068;4.414;2023-02-28T11:06:31;2.65;;;1.58;;
26965;SDS011;14522;52.068;4.414;2023-02-28T11:08:59;3.65;;;1.35;;
26965;SDS011;14522;52.068;4.414;2023-02-28T11:11:26;2.33;;;1.20;;
26965;SDS011;14522;52.068;4.414;2023-02-28T11:13:55;2.85;;;1.50;;
26965;SDS011;14522;52.068;4.414;2023-02-28T11:16:22;3.00;;;1.20;;
26965;SDS011;14522;52.068;4.414;2023-02-28T11:18:58;2.75;;;1.25;;
26965;SDS011;14522;52.068;4.414;2023-02-28T11:21:30;2.65;;;1.23;;
26965;SDS011;14522;52.068;4.414;2023-02-28T11:24:01;2.88;;;1.13;;
26965;SDS011;14522;52.068;4.414;2023-02-28T11:26:41;2.30;;;1.13;;
26965;SDS011;14522;52.068;4.414;2023-02-28T11:29:10;2.35;;;1.55;;
26965;SDS011;14522;52.068;4.414;2023-02-28T11:31:37;3.25;;;1.20;;
26965;SDS011;14522;52.068;4.414;2023-02-28T11:34:10;3.30;;;1.20;;
26965;SDS011;14522;52.068;4.414;2023-02-28T11:36:47;3.40;;;1.33;;
26965;SDS011;14522;52.068;4.414;2023-02-28T11:39:14;2.38;;;1.35;;
26965;SDS011;14522;52.068;4.414;2023-02-28T11:44:23;4.82;;;1.25;;
26965;SDS011;14522;52.068;4.414;2023-02-28T11:46:58;3.67;;;1.30;;
26965;SDS011;14522;52.068;4.414;2023-02-28T11:51:54;2.45;;;1.30;;
26965;SDS011;14522;52.068;4.414;2023-02-28T11:54:24;1.95;;;1.10;;
26965;SDS011;14522;52.068;4.414;2023-02-28T11:56:57;3.13;;;1.10;;
26965;SDS011;14522;52.068;4.414;2023-02-28T12:02:50;2.22;;;1.40;;
26965;SDS011;14522;52.068;4.414;2023-02-28T12:08:03;4.72;;;1.60;;
26965;SDS011;14522;52.068;4.414;2023-02-28T12:10:37;1.60;;;1.17;;
26965;SDS011;14522;52.068;4.414;2023-02-28T12:13:53;1.73;;;1.30;;
26965;SDS011;14522;52.068;4.414;2023-02-28T12:21:04;2.58;;;1.52;;
26965;SDS011;14522;52.068;4.414;2023-02-28T12:26:24;2.20;;;0.95;;
26965;SDS011;14522;52.068;4.414;2023-02-28T12:29:40;2.50;;;1.08;;
26965;SDS011;14522;52.068;4.414;2023-02-28T12:31:49;2.60;;;1.05;;
26965;SDS011;14522;52.068;4.414;2023-02-28T12:34:19;5.20;;;1.17;;
26965;SDS011;14522;52.068;4.414;2023-02-28T12:36:47;3.58;;;1.38;;
26965;SDS011;14522;52.068;4.414;2023-02-28T12:39:16;1.60;;;1.00;;
26965;SDS011;14522;52.068;4.414;2023-02-28T12:41:49;1.40;;;1.05;;
26965;SDS011;14522;52.068;4.414;2023-02-28T12:44:18;1.48;;;0.80;;
26965;SDS011;14522;52.068;4.414;2023-02-28T12:46:55;1.35;;;0.80;;
26965;SDS011;14522;52.068;4.414;2023-02-28T12:50:06;0.90;;;0.68;;
26965;SDS011;14522;52.068;4.414;2023-02-28T12:52:13;2.58;;;0.90;;
26965;SDS011;14522;52.068;4.414;2023-02-28T12:54:47;1.40;;;1.00;;
26965;SDS011;14522;52.068;4.414;2023-02-28T12:57:21;2.13;;;1.10;;
26965;SDS011;14522;52.068;4.414;2023-02-28T12:59:50;2.45;;;1.13;;
26965;SDS011;14522;52.068;4.414;2023-02-28T13:10:41;3.10;;;0.80;;
26965;SDS011;14522;52.068;4.414;2023-02-28T13:13:13;1.40;;;1.02;;
26965;SDS011;14522;52.068;4.414;2023-02-28T13:15:40;7.57;;;1.10;;
26965;SDS011;14522;52.068;4.414;2023-02-28T13:18:26;2.05;;;1.08;;
26965;SDS011;14522;52.068;4.414;2023-02-28T13:20:53;2.75;;;1.10;;
26965;SDS011;14522;52.068;4.414;2023-02-28T13:26:05;7.07;;;1.20;;
26965;SDS011;14522;52.068;4.414;2023-02-28T13:31:16;1.42;;;0.82;;
26965;SDS011;14522;52.068;4.414;2023-02-28T13:36:32;1.10;;;0.85;;
26965;SDS011;14522;52.068;4.414;2023-02-28T13:39:01;2.33;;;1.10;;
26965;SDS011;14522;52.068;4.414;2023-02-28T13:44:04;1.10;;;1.00;;
26965;SDS011;14522;52.068;4.414;2023-02-28T13:46:35;1.25;;;0.98;;
26965;SDS011;14522;52.068;4.414;2023-02-28T13:51:48;2.67;;;1.27;;
26965;SDS011;14522;52.068;4.414;2023-02-28T13:54:20;2.00;;;1.10;;
26965;SDS011;14522;52.068;4.414;2023-02-28T13:56:50;1.92;;;1.30;;
26965;SDS011;14522;52.068;4.414;2023-02-28T14:04:30;2.00;;;1.33;;
26965;SDS011;14522;52.068;4.414;2023-02-28T14:07:03;1.92;;;1.08;;
26965;SDS011;14522;52.068;4.414;2023-02-28T14:09:31;1.20;;;1.00;;
26965;SDS011;14522;52.068;4.414;2023-02-28T14:17:14;4.25;;;1.10;;
26965;SDS011;14522;52.068;4.414;2023-02-28T14:19:43;2.13;;;1.48;;
26965;SDS011;14522;52.068;4.414;2023-02-28T14:22:16;2.60;;;1.33;;
26965;SDS011;14522;52.068;4.414;2023-02-28T14:29:53;5.07;;;1.42;;
26965;SDS011;14522;52.068;4.414;2023-02-28T14:37:37;1.60;;;1.08;;
26965;SDS011;14522;52.068;4.414;2023-02-28T14:40:11;2.13;;;1.13;;
26965;SDS011;14522;52.068;4.414;2023-02-28T14:42:46;3.13;;;1.20;;
26965;SDS011;14522;52.068;4.414;2023-02-28T14:45:19;1.15;;;0.85;;
26965;SDS011;14522;52.068;4.414;2023-02-28T14:47:46;7.30;;;1.77;;
26965;SDS011;14522;52.068;4.414;2023-02-28T14:50:20;2.17;;;1.20;;
26965;SDS011;14522;52.068;4.414;2023-02-28T14:52:47;1.67;;;1.00;;
26965;SDS011;14522;52.068;4.414;2023-02-28T14:55:15;2.47;;;0.90;;
26965;SDS011;14522;52.068;4.414;2023-02-28T14:57:53;1.40;;;1.00;;
26965;SDS011;14522;52.068;4.414;2023-02-28T15:00:26;2.22;;;1.08;;
26965;SDS011;14522;52.068;4.414;2023-02-28T15:02:54;1.83;;;1.38;;
26965;SDS011;14522;52.068;4.414;2023-02-28T15:05:25;1.88;;;1.23;;
26965;SDS011;14522;52.068;4.414;2023-02-28T15:08:03;3.60;;;1.40;;
26965;SDS011;14522;52.068;4.414;2023-02-28T15:10:30;1.38;;;0.95;;
26965;SDS011;14522;52.068;4.414;2023-02-28T15:13:00;6.50;;;1.30;;
26965;SDS011;14522;52.068;4.414;2023-02-28T15:15:41;2.65;;;1.17;;
26965;SDS011;14522;52.068;4.414;2023-02-28T15:20:56;2.45;;;1.05;;
26965;SDS011;14522;52.068;4.414;2023-02-28T15:23:23;2.13;;;1.00;;
26965;SDS011;14522;52.068;4.414;2023-02-28T15:25:49;2.47;;;1.30;;
26965;SDS011;14522;52.068;4.414;2023-02-28T15:28:18;1.85;;;1.17;;
26965;SDS011;14522;52.068;4.414;2023-02-28T15:31:20;1.65;;;0.98;;
26965;SDS011;14522;52.068;4.414;2023-02-28T15:33:37;2.28;;;0.90;;
26965;SDS011;14522;52.068;4.414;2023-02-28T15:36:18;3.22;;;1.33;;
26965;SDS011;14522;52.068;4.414;2023-02-28T15:38:50;2.95;;;1.15;;
26965;SDS011;14522;52.068;4.414;2023-02-28T15:41:26;1.67;;;1.00;;
26965;SDS011;14522;52.068;4.414;2023-02-28T15:46:39;2.97;;;1.67;;
26965;SDS011;14522;52.068;4.414;2023-02-28T15:49:12;2.15;;;1.30;;
26965;SDS011;14522;52.068;4.414;2023-02-28T15:51:43;3.15;;;1.27;;
26965;SDS011;14522;52.068;4.414;2023-02-28T15:54:13;3.63;;;1.17;;
26965;SDS011;14522;52.068;4.414;2023-02-28T15:56:49;3.40;;;1.20;;
26965;SDS011;14522;52.068;4.414;2023-02-28T15:59:17;2.47;;;1.27;;
26965;SDS011;14522;52.068;4.414;2023-02-28T16:01:44;3.83;;;1.23;;
26965;SDS011;14522;52.068;4.414;2023-02-28T16:04:15;2.45;;;0.95;;
26965;SDS011;14522;52.068;4.414;2023-02-28T16:06:42;2.90;;;1.30;;
26965;SDS011;14522;52.068;4.414;2023-02-28T16:09:10;3.78;;;1.38;;
26965;SDS011;14522;52.068;4.414;2023-02-28T16:11:39;1.73;;;1.15;;
26965;SDS011;14522;52.068;4.414;2023-02-28T16:14:10;2.55;;;1.20;;
26965;SDS011;14522;52.068;4.414;2023-02-28T16:16:41;2.08;;;1.00;;
26965;SDS011;14522;52.068;4.414;2023-02-28T16:19:08;2.67;;;1.42;;
26965;SDS011;14522;52.068;4.414;2023-02-28T16:21:34;3.42;;;1.30;;
26965;SDS011;14522;52.068;4.414;2023-02-28T16:24:01;2.05;;;1.02;;
26965;SDS011;14522;52.068;4.414;2023-02-28T16:26:27;2.38;;;1.17;;
26965;SDS011;14522;52.068;4.414;2023-02-28T16:28:54;2.85;;;1.20;;
26965;SDS011;14522;52.068;4.414;2023-02-28T16:31:21;1.55;;;1.30;;
26965;SDS011;14522;52.068;4.414;2023-02-28T16:33:47;1.77;;;1.33;;
26965;SDS011;14522;52.068;4.414;2023-02-28T16:36:19;4.75;;;1.50;;
26965;SDS011;14522;52.068;4.414;2023-02-28T16:38:45;2.80;;;1.58;;
26965;SDS011;14522;52.068;4.414;2023-02-28T16:41:12;2.35;;;1.35;;
26965;SDS011;14522;52.068;4.414;2023-02-28T16:43:43;1.70;;;1.20;;
26965;SDS011;14522;52.068;4.414;2023-02-28T16:46:10;1.92;;;1.33;;
26965;SDS011;14522;52.068;4.414;2023-02-28T16:48:37;3.20;;;1.40;;
26965;SDS011;14522;52.068;4.414;2023-02-28T16:51:03;2.38;;;1.73;;
26965;SDS011;14522;52.068;4.414;2023-02-28T16:53:30;2.67;;;1.25;;